TAP1923 LPPR-LPPT
Flight info
| Callsign | TAP1923 |
|---|---|
| Flight time | 0h 40m |
| Altitude | 23000 |
| Route | MANIK DCT ABRIL DCT XAMAX |
| Aircraft | A20N/M-SDE2E3FGHIRWXY/LB1 |
Departure
| Time | 2026-05-04 17:11 |
|---|---|
| Airport | Francisco de Sá Carneiro Airport (LPPR) |
Arrival
| Time | 2026-05-04 17:52 |
|---|---|
| Airport | Lisbon Humberto Delgado Airport (LPPT) |
| Time | Latitude | Longitude | Altitude | Speed | Heading |
|---|---|---|---|---|---|
| 2026-05-04 16:56 | 41.23795 | -8.67360 | 237 ft | 0 kts | 49° |
| 2026-05-04 17:03 | 41.23786 | -8.67373 | 236 ft | 3 kts | 49° |
| 2026-05-04 17:03 | 41.23773 | -8.67393 | 236 ft | 3 kts | 50° |
| 2026-05-04 17:03 | 41.23755 | -8.67431 | 236 ft | 3 kts | 102° |
| 2026-05-04 17:04 | 41.23780 | -8.67464 | 236 ft | 2 kts | 166° |
| 2026-05-04 17:04 | 41.23785 | -8.67465 | 236 ft | 0 kts | 169° |
| 2026-05-04 17:07 | 41.23778 | -8.67463 | 236 ft | 4 kts | 169° |
| 2026-05-04 17:08 | 41.23730 | -8.67451 | 236 ft | 7 kts | 169° |
| 2026-05-04 17:08 | 41.23636 | -8.67472 | 236 ft | 9 kts | 234° |
| 2026-05-04 17:08 | 41.23616 | -8.67573 | 240 ft | 14 kts | 259° |
| 2026-05-04 17:09 | 41.23602 | -8.67670 | 233 ft | 6 kts | 259° |
| 2026-05-04 17:09 | 41.23601 | -8.67676 | 232 ft | 0 kts | 259° |
| 2026-05-04 17:10 | 41.23608 | -8.67795 | 230 ft | 14 kts | 310° |
| 2026-05-04 17:10 | 41.25274 | -8.68242 | 237 ft | 150 kts | 347° |
| 2026-05-04 17:11 | 41.26330 | -8.68488 | 699 ft | 154 kts | 347° |
| 2026-05-04 17:11 | 41.27351 | -8.68751 | 1515 ft | 145 kts | 346° |
| 2026-05-04 17:11 | 41.29415 | -8.69324 | 2383 ft | 167 kts | 345° |
| 2026-05-04 17:12 | 41.30614 | -8.69654 | 2722 ft | 187 kts | 346° |
| 2026-05-04 17:12 | 41.33529 | -8.70421 | 3772 ft | 237 kts | 346° |
| 2026-05-04 17:13 | 41.38740 | -8.71794 | 6560 ft | 264 kts | 342° |
| 2026-05-04 17:14 | 41.41739 | -8.76475 | 9055 ft | 268 kts | 273° |
| 2026-05-04 17:14 | 41.41554 | -8.78938 | 10057 ft | 270 kts | 257° |
| 2026-05-04 17:14 | 41.39553 | -8.83341 | 11083 ft | 310 kts | 216° |
| 2026-05-04 17:15 | 41.37506 | -8.84478 | 11600 ft | 329 kts | 192° |
| 2026-05-04 17:15 | 41.32832 | -8.83998 | 13315 ft | 346 kts | 171° |
| 2026-05-04 17:16 | 41.28051 | -8.82558 | 14911 ft | 356 kts | 170° |
| 2026-05-04 17:16 | 41.19933 | -8.80302 | 17500 ft | 367 kts | 173° |
| 2026-05-04 17:17 | 41.17445 | -8.79645 | 18253 ft | 371 kts | 173° |
| 2026-05-04 17:17 | 41.09743 | -8.77618 | 20258 ft | 381 kts | 174° |
| 2026-05-04 17:18 | 41.07129 | -8.76930 | 20916 ft | 384 kts | 174° |
| 2026-05-04 17:18 | 41.01901 | -8.74985 | 22200 ft | 395 kts | 168° |
| 2026-05-04 17:19 | 40.96549 | -8.74171 | 23063 ft | 384 kts | 194° |
| 2026-05-04 17:19 | 40.91436 | -8.75972 | 23102 ft | 379 kts | 201° |
| 2026-05-04 17:20 | 40.86277 | -8.77972 | 23099 ft | 402 kts | 200° |
| 2026-05-04 17:20 | 40.80647 | -8.80014 | 23100 ft | 435 kts | 199° |
| 2026-05-04 17:20 | 40.77678 | -8.81060 | 23098 ft | 446 kts | 199° |
| 2026-05-04 17:21 | 40.74177 | -8.82284 | 23097 ft | 446 kts | 199° |
| 2026-05-04 17:21 | 40.68172 | -8.84382 | 23092 ft | 447 kts | 199° |
| 2026-05-04 17:22 | 40.64148 | -8.85792 | 23089 ft | 447 kts | 199° |
| 2026-05-04 17:22 | 40.62157 | -8.86490 | 23089 ft | 447 kts | 199° |
| 2026-05-04 17:23 | 40.53132 | -8.89649 | 23089 ft | 448 kts | 199° |
| 2026-05-04 17:23 | 40.50120 | -8.90701 | 23089 ft | 448 kts | 199° |
| 2026-05-04 17:23 | 40.44132 | -8.92791 | 23093 ft | 448 kts | 199° |
| 2026-05-04 17:24 | 40.41116 | -8.93841 | 23095 ft | 448 kts | 199° |
| 2026-05-04 17:24 | 40.32068 | -8.96986 | 23085 ft | 449 kts | 199° |
| 2026-05-04 17:25 | 40.29043 | -8.98036 | 23100 ft | 449 kts | 199° |
| 2026-05-04 17:25 | 40.23001 | -9.00130 | 23091 ft | 449 kts | 199° |
| 2026-05-04 17:26 | 40.16952 | -9.02222 | 23091 ft | 450 kts | 199° |
| 2026-05-04 17:26 | 40.07871 | -9.05355 | 23092 ft | 450 kts | 200° |
| 2026-05-04 17:27 | 40.01816 | -9.07440 | 23096 ft | 450 kts | 200° |
| 2026-05-04 17:27 | 39.95757 | -9.09522 | 23099 ft | 450 kts | 200° |
| 2026-05-04 17:28 | 39.89691 | -9.11603 | 23102 ft | 451 kts | 200° |
| 2026-05-04 17:29 | 39.80588 | -9.14718 | 23100 ft | 451 kts | 200° |
| 2026-05-04 17:29 | 39.71479 | -9.17827 | 23102 ft | 452 kts | 200° |
| 2026-05-04 17:30 | 39.62357 | -9.20931 | 23104 ft | 452 kts | 200° |
| 2026-05-04 17:31 | 39.56265 | -9.22999 | 23105 ft | 452 kts | 200° |
| 2026-05-04 17:31 | 39.47120 | -9.26097 | 23104 ft | 453 kts | 200° |
| 2026-05-04 17:32 | 39.41744 | -9.27911 | 22990 ft | 442 kts | 200° |
| 2026-05-04 17:33 | 39.33237 | -9.30768 | 22119 ft | 403 kts | 200° |
| 2026-05-04 17:33 | 39.30567 | -9.31668 | 21840 ft | 390 kts | 200° |
| 2026-05-04 17:34 | 39.22883 | -9.34263 | 20294 ft | 373 kts | 200° |
| 2026-05-04 17:34 | 39.20382 | -9.35107 | 19776 ft | 369 kts | 200° |
| 2026-05-04 17:35 | 39.13058 | -9.37570 | 18200 ft | 361 kts | 199° |
| 2026-05-04 17:35 | 39.08222 | -9.39189 | 17154 ft | 353 kts | 199° |
| 2026-05-04 17:35 | 39.05890 | -9.39968 | 16666 ft | 349 kts | 199° |
| 2026-05-04 17:36 | 39.03520 | -9.40760 | 16160 ft | 346 kts | 199° |
| 2026-05-04 17:36 | 39.01197 | -9.41535 | 15662 ft | 343 kts | 199° |
| 2026-05-04 17:36 | 38.98894 | -9.42305 | 15175 ft | 341 kts | 199° |
| 2026-05-04 17:36 | 38.96605 | -9.43069 | 14681 ft | 339 kts | 199° |
| 2026-05-04 17:37 | 38.94330 | -9.43828 | 14196 ft | 337 kts | 199° |
| 2026-05-04 17:37 | 38.92062 | -9.44583 | 13675 ft | 335 kts | 199° |
| 2026-05-04 17:37 | 38.89813 | -9.45332 | 13197 ft | 332 kts | 198° |
| 2026-05-04 17:37 | 38.87586 | -9.46072 | 12729 ft | 329 kts | 198° |
| 2026-05-04 17:38 | 38.85380 | -9.46806 | 12254 ft | 326 kts | 198° |
| 2026-05-04 17:38 | 38.83223 | -9.47523 | 11800 ft | 324 kts | 198° |
| 2026-05-04 17:38 | 38.81020 | -9.48255 | 11326 ft | 321 kts | 198° |
| 2026-05-04 17:38 | 38.78891 | -9.48963 | 10869 ft | 320 kts | 198° |
| 2026-05-04 17:39 | 38.74647 | -9.50367 | 10321 ft | 304 kts | 198° |
| 2026-05-04 17:39 | 38.72636 | -9.51029 | 10082 ft | 296 kts | 198° |
| 2026-05-04 17:39 | 38.70659 | -9.51683 | 9782 ft | 289 kts | 198° |
| 2026-05-04 17:40 | 38.68727 | -9.52322 | 9645 ft | 288 kts | 198° |
| 2026-05-04 17:40 | 38.66775 | -9.52970 | 9463 ft | 291 kts | 198° |
| 2026-05-04 17:40 | 38.64809 | -9.53622 | 9103 ft | 292 kts | 198° |
| 2026-05-04 17:40 | 38.62847 | -9.54269 | 8735 ft | 290 kts | 198° |
| 2026-05-04 17:41 | 38.60903 | -9.54902 | 8369 ft | 287 kts | 195° |
| 2026-05-04 17:41 | 38.58933 | -9.55153 | 8153 ft | 283 kts | 181° |
| 2026-05-04 17:41 | 38.56958 | -9.54807 | 8110 ft | 290 kts | 171° |
| 2026-05-04 17:41 | 38.54984 | -9.54280 | 8108 ft | 289 kts | 171° |
| 2026-05-04 17:42 | 38.53012 | -9.53775 | 8101 ft | 289 kts | 171° |
| 2026-05-04 17:42 | 38.51041 | -9.53257 | 8100 ft | 290 kts | 168° |
| 2026-05-04 17:42 | 38.49147 | -9.52352 | 8106 ft | 292 kts | 155° |
| 2026-05-04 17:42 | 38.47420 | -9.50969 | 8111 ft | 294 kts | 147° |
| 2026-05-04 17:43 | 38.45727 | -9.49504 | 8107 ft | 294 kts | 148° |
| 2026-05-04 17:43 | 38.44030 | -9.48053 | 8109 ft | 294 kts | 148° |
| 2026-05-04 17:43 | 38.42362 | -9.46554 | 8105 ft | 295 kts | 141° |
| 2026-05-04 17:43 | 38.41037 | -9.44593 | 8107 ft | 289 kts | 118° |
| 2026-05-04 17:44 | 38.40475 | -9.42231 | 8102 ft | 272 kts | 92° |
| 2026-05-04 17:44 | 38.40706 | -9.39942 | 8098 ft | 252 kts | 67° |
| 2026-05-04 17:44 | 38.41540 | -9.38084 | 8101 ft | 238 kts | 44° |
| 2026-05-04 17:44 | 38.42814 | -9.36758 | 8107 ft | 236 kts | 27° |
| 2026-05-04 17:45 | 38.44219 | -9.35677 | 8100 ft | 236 kts | 27° |
| 2026-05-04 17:45 | 38.45614 | -9.34577 | 8106 ft | 236 kts | 28° |
| 2026-05-04 17:45 | 38.47002 | -9.33471 | 8102 ft | 236 kts | 28° |
| 2026-05-04 17:45 | 38.48385 | -9.32362 | 8045 ft | 233 kts | 28° |
| 2026-05-04 17:46 | 38.49755 | -9.31267 | 7800 ft | 232 kts | 28° |
| 2026-05-04 17:46 | 38.51128 | -9.30170 | 7490 ft | 233 kts | 28° |
| 2026-05-04 17:46 | 38.52495 | -9.29079 | 7203 ft | 231 kts | 28° |
| 2026-05-04 17:46 | 38.53876 | -9.27978 | 6754 ft | 238 kts | 28° |
| 2026-05-04 17:47 | 38.55323 | -9.26829 | 6126 ft | 251 kts | 28° |
| 2026-05-04 17:47 | 38.56835 | -9.25626 | 5485 ft | 261 kts | 28° |
| 2026-05-04 17:47 | 38.58405 | -9.24382 | 4891 ft | 269 kts | 26° |
| 2026-05-04 17:47 | 38.60076 | -9.23263 | 4262 ft | 271 kts | 21° |
| 2026-05-04 17:48 | 38.61790 | -9.22307 | 3655 ft | 268 kts | 18° |
| 2026-05-04 17:48 | 38.63491 | -9.21406 | 3251 ft | 261 kts | 19° |
| 2026-05-04 17:48 | 38.64588 | -9.20823 | 2980 ft | 252 kts | 19° |
| 2026-05-04 17:48 | 38.66608 | -9.19746 | 2540 ft | 218 kts | 18° |
| 2026-05-04 17:49 | 38.67939 | -9.19024 | 2255 ft | 199 kts | 17° |
| 2026-05-04 17:49 | 38.69157 | -9.18383 | 2033 ft | 178 kts | 17° |
| 2026-05-04 17:49 | 38.70226 | -9.17807 | 1790 ft | 156 kts | 17° |
| 2026-05-04 17:49 | 38.71169 | -9.17308 | 1576 ft | 139 kts | 16° |
| 2026-05-04 17:50 | 38.72011 | -9.16858 | 1398 ft | 128 kts | 15° |
| 2026-05-04 17:50 | 38.72720 | -9.16481 | 1224 ft | 121 kts | 14° |
| 2026-05-04 17:50 | 38.73523 | -9.16054 | 1060 ft | 131 kts | 14° |
| 2026-05-04 17:50 | 38.74345 | -9.15611 | 879 ft | 121 kts | 14° |
| 2026-05-04 17:51 | 38.75105 | -9.15210 | 719 ft | 125 kts | 14° |
| 2026-05-04 17:51 | 38.75921 | -9.14775 | 538 ft | 128 kts | 18° |
| 2026-05-04 17:51 | 38.76735 | -9.14338 | 367 ft | 125 kts | 18° |
| 2026-05-04 17:51 | 38.77439 | -9.13966 | 364 ft | 81 kts | 22° |
| 2026-05-04 17:52 | 38.77806 | -9.13768 | 366 ft | 46 kts | 22° |
| 2026-05-04 17:52 | 38.78085 | -9.13618 | 365 ft | 36 kts | 22° |
| 2026-05-04 17:52 | 38.78228 | -9.13513 | 365 ft | 11 kts | 73° |
| 2026-05-04 17:52 | 38.78178 | -9.13460 | 366 ft | 13 kts | 162° |
| 2026-05-04 17:53 | 38.78085 | -9.13433 | 364 ft | 17 kts | 168° |
| 2026-05-04 17:53 | 38.77945 | -9.13402 | 352 ft | 24 kts | 173° |
| 2026-05-04 17:53 | 38.77767 | -9.13349 | 346 ft | 25 kts | 168° |
| 2026-05-04 17:53 | 38.77575 | -9.13316 | 338 ft | 30 kts | 175° |
| 2026-05-04 17:54 | 38.77375 | -9.13267 | 335 ft | 25 kts | 171° |
| 2026-05-04 17:54 | 38.77209 | -9.13228 | 335 ft | 21 kts | 169° |
| 2026-05-04 17:54 | 38.77156 | -9.13169 | 337 ft | 9 kts | 91° |
| 2026-05-04 17:54 | 38.77161 | -9.13124 | 335 ft | 0 kts | 78° |
| 2026-05-04 17:55 | 38.77161 | -9.13122 | 335 ft | 0 kts | 78° |